Time;durP1;ratioP1;P1;durP2;ratioP2;P2;SDS_P1;SDS_P2;PMS_P1;PMS_P2;Temp;Humidity;BMP_temperature;BMP_pressure;BME280_temperature;BME280_humidity;BME280_pressure;Samples;Min_cycle;Max_cycle;Signal;HPM_P1;HPM_P2
2022/09/09 00:02:19;;;;;;;2.30;2.10;;;;;;;5.99;64.52;96935.25;6313688;28;20180;-64
2022/09/09 00:05:31;;;;;;;2.92;2.45;;;;;;;6.01;64.41;96933.41;6320582;28;20055;-62
2022/09/09 00:09:20;;;;;;;2.78;2.30;;;;;;;6.00;64.41;96937.78;6302622;28;20059;-61
2022/09/09 00:12:36;;;;;;;2.10;1.90;;;;;;;6.16;63.89;96937.91;6298599;28;20063;-61
2022/09/09 00:16:00;;;;;;;2.60;2.40;;;;;;;6.26;63.82;96947.03;6320787;28;20051;-60
2022/09/09 00:19:17;;;;;;;2.90;2.55;;;;;;;6.29;63.41;96944.28;6295927;28;20045;-61
2022/09/09 00:22:26;;;;;;;3.25;2.25;;;;;;;6.24;63.67;96951.47;6295888;28;20518;-63
2022/09/09 00:25:40;;;;;;;2.67;2.42;;;;;;;6.22;63.46;96948.09;6303478;28;20579;-61
2022/09/09 00:29:12;;;;;;;3.03;2.10;;;;;;;6.14;63.81;96952.81;6313011;28;20048;-62
2022/09/09 00:32:16;;;;;;;3.40;2.35;;;;;;;6.08;63.72;96953.94;6318257;28;20196;-61
2022/09/09 00:35:25;;;;;;;2.97;2.50;;;;;;;6.02;63.95;96950.78;6308860;28;20040;-60
2022/09/09 00:38:43;;;;;;;2.50;2.05;;;;;;;5.89;64.29;96954.81;6312087;28;20186;-60
2022/09/09 00:42:01;;;;;;;2.15;1.95;;;;;;;5.73;64.79;96952.91;6308246;28;20053;-60
2022/09/09 00:45:34;;;;;;;2.85;2.22;;;;;;;5.66;65.00;96954.06;6317038;28;20036;-62
2022/09/09 00:48:59;;;;;;;4.05;2.83;;;;;;;5.75;64.79;96953.69;6310393;28;20045;-60
2022/09/09 00:52:19;;;;;;;3.00;2.67;;;;;;;5.93;64.28;96956.38;6305571;28;20043;-60
2022/09/09 00:55:42;;;;;;;4.68;2.80;;;;;;;5.87;64.17;96964.50;6319096;28;20048;-60
2022/09/09 00:59:05;;;;;;;4.18;2.40;;;;;;;5.75;64.65;96953.69;6313571;28;20144;-60
2022/09/09 01:02:22;;;;;;;3.30;3.00;;;;;;;5.69;64.66;96958.31;6262473;28;20049;-60
2022/09/09 01:05:44;;;;;;;3.15;2.08;;;;;;;5.73;64.43;96959.88;6237847;28;20227;-61
2022/09/09 01:09:07;;;;;;;4.40;3.03;;;;;;;5.74;64.08;96951.97;6238658;28;20037;-61
2022/09/09 01:12:26;;;;;;;3.30;3.00;;;;;;;5.78;64.05;96948.31;6244878;28;20140;-61
2022/09/09 01:15:34;;;;;;;2.42;2.22;;;;;;;5.75;63.97;96943.25;6244505;28;20061;-62
2022/09/09 01:18:46;;;;;;;7.07;2.90;;;;;;;5.82;63.96;96957.69;6244332;28;20422;-62
2022/09/09 01:22:08;;;;;;;3.47;2.85;;;;;;;5.72;63.97;96951.22;6244405;28;20053;-60
2022/09/09 01:25:19;;;;;;;4.35;2.80;;;;;;;5.75;63.74;96943.25;6236565;28;20514;-60
2022/09/09 01:28:27;;;;;;;3.50;2.95;;;;;;;5.65;64.16;96952.38;6244408;28;20192;-60
2022/09/09 01:31:54;;;;;;;3.35;2.97;;;;;;;5.65;64.49;96960.22;6244355;28;20068;-60
2022/09/09 01:34:55;;;;;;;3.47;2.40;;;;;;;5.62;64.42;96953.38;6243601;28;20056;-62
2022/09/09 01:37:59;;;;;;;3.97;3.17;;;;;;;5.64;64.21;96966.34;6244010;28;20426;-61
2022/09/09 01:41:02;;;;;;;3.67;3.28;;;;;;;5.67;64.53;96961.00;6260154;28;20155;-60
2022/09/09 01:44:03;;;;;;;2.92;2.60;;;;;;;5.79;64.29;96970.91;6220241;28;20081;-61
2022/09/09 01:47:07;;;;;;;4.30;2.88;;;;;;;5.84;63.82;96958.50;6244509;28;20041;-60
2022/09/09 01:50:16;;;;;;;4.43;2.78;;;;;;;5.82;64.07;96960.31;6244420;28;20903;-61
2022/09/09 01:53:23;;;;;;;3.97;2.63;;;;;;;5.82;64.49;96962.09;6242083;28;20491;-61
2022/09/09 01:56:42;;;;;;;33.00;16.35;;;;;;;5.87;64.18;96959.28;6223573;28;20042;-61
2022/09/09 02:00:04;;;;;;;15.93;9.13;;;;;;;5.98;64.11;96964.91;6235269;28;20473;-60
2022/09/09 02:03:14;;;;;;;5.88;3.65;;;;;;;6.16;63.75;96968.44;6219418;28;20075;-61
2022/09/09 02:06:39;;;;;;;3.40;2.80;;;;;;;6.15;63.75;96974.59;6229025;28;20033;-60
2022/09/09 02:09:51;;;;;;;4.05;2.60;;;;;;;6.13;64.06;96973.81;6238850;28;20049;-62
2022/09/09 02:13:04;;;;;;;2.67;2.28;;;;;;;6.35;63.73;96979.75;6231075;28;20184;-61
2022/09/09 02:16:21;;;;;;;4.25;3.22;;;;;;;6.44;63.61;96989.75;6229940;28;20071;-64
2022/09/09 02:19:32;;;;;;;4.07;2.83;;;;;;;6.52;63.25;96986.78;6219665;28;20494;-63
2022/09/09 02:22:43;;;;;;;3.63;2.95;;;;;;;6.54;62.92;96984.97;6233369;28;20148;-62
2022/09/09 02:25:48;;;;;;;3.85;2.88;;;;;;;6.66;62.95;96989.59;6243181;28;20049;-63
2022/09/09 02:28:52;;;;;;;3.63;2.38;;;;;;;6.72;62.56;96978.00;6243331;28;20069;-63
2022/09/09 02:32:02;;;;;;;3.10;2.67;;;;;;;6.74;62.61;96977.00;6242982;28;20058;-63
2022/09/09 02:35:08;;;;;;;4.88;3.70;;;;;;;6.77;62.87;96988.25;6243319;28;20076;-63
2022/09/09 02:38:16;;;;;;;8.75;4.05;;;;;;;6.83;63.05;96995.81;6248029;28;20049;-62
2022/09/09 02:41:29;;;;;;;5.47;3.55;;;;;;;6.90;62.58;96991.97;6247875;28;20183;-64
2022/09/09 02:44:32;;;;;;;3.97;3.20;;;;;;;6.79;63.43;96987.25;6248009;28;20091;-63
2022/09/09 02:47:52;;;;;;;4.20;2.97;;;;;;;6.72;64.27;97001.53;6248141;28;20396;-63
2022/09/09 02:51:10;;;;;;;4.95;3.13;;;;;;;6.79;64.01;96994.25;6248904;28;20069;-62
2022/09/09 02:54:20;;;;;;;4.13;3.08;;;;;;;6.97;64.09;97004.69;6247796;28;20049;-62
2022/09/09 02:57:31;;;;;;;4.78;3.33;;;;;;;7.14;63.92;97000.41;6248020;28;20057;-62
2022/09/09 03:00:32;;;;;;;7.10;2.97;;;;;;;7.26;63.58;96999.78;6240166;28;20132;-62
2022/09/09 03:03:34;;;;;;;3.58;3.00;;;;;;;7.48;62.79;97004.81;6246778;28;20072;-62
2022/09/09 03:06:38;;;;;;;4.22;2.95;;;;;;;7.65;62.96;96996.09;6245679;28;20037;-62
2022/09/09 03:09:39;;;;;;;5.28;2.72;;;;;;;7.92;62.17;96993.81;6246694;28;20057;-62
2022/09/09 03:12:41;;;;;;;4.20;2.70;;;;;;;8.23;61.54;96993.03;6230034;28;20045;-62
2022/09/09 03:15:45;;;;;;;3.65;2.72;;;;;;;8.58;60.60;96994.69;6229447;28;20521;-62
2022/09/09 03:18:46;;;;;;;;;;;;;;;8.94;60.17;96997.06;6227891;28;20526;-63
2022/09/09 03:21:49;;;;;;;3.22;2.50;;;;;;;9.14;59.49;97001.16;6231229;28;19928;-62
2022/09/09 03:24:51;;;;;;;5.18;3.20;;;;;;;9.26;59.29;96999.66;6237424;28;20527;-63
2022/09/09 03:27:56;;;;;;;8.07;5.50;;;;;;;9.25;59.51;96998.78;6240222;28;20056;-63
2022/09/09 03:31:02;;;;;;;6.60;4.50;;;;;;;9.22;60.12;97009.47;6229209;28;20571;-64
2022/09/09 03:34:03;;;;;;;8.55;4.55;;;;;;;9.13;60.21;96986.38;6229874;28;20033;-62
2022/09/09 03:37:09;;;;;;;13.60;6.13;;;;;;;9.51;59.64;97009.56;6236775;28;20050;-62
2022/09/09 03:40:11;;;;;;;;;;;;;;;9.52;59.27;97009.47;6230630;28;20049;-61
2022/09/09 03:43:16;;;;;;;4.88;3.60;;;;;;;9.43;60.08;97015.28;6235577;28;19921;-62
2022/09/09 03:46:21;;;;;;;10.27;6.43;;;;;;;9.52;59.84;97000.75;6237860;28;20506;-64
2022/09/09 03:49:23;;;;;;;5.10;2.65;;;;;;;9.68;59.22;97012.03;6233177;28;20076;-62
2022/09/09 03:52:27;;;;;;;3.92;2.67;;;;;;;9.62;58.96;97001.88;6236570;28;20041;-63
2022/09/09 03:55:32;;;;;;;2.92;2.58;;;;;;;9.62;58.99;97012.41;6238291;28;20045;-63
2022/09/09 03:58:38;;;;;;;4.18;2.40;;;;;;;9.72;58.63;97013.56;6230384;28;20045;-63
2022/09/09 04:01:39;;;;;;;4.03;2.78;;;;;;;9.84;58.25;97018.06;6236178;28;20102;-64
2022/09/09 04:04:44;;;;;;;3.47;2.55;;;;;;;10.11;57.96;97010.31;6236841;28;20050;-63
2022/09/09 04:07:45;;;;;;;7.10;2.78;;;;;;;10.62;56.23;97016.94;6240305;28;20103;-62
2022/09/09 04:10:50;;;;;;;;;;;;;;;11.11;55.21;97027.78;6236101;28;20045;-63
2022/09/09 04:13:51;;;;;;;2.72;1.90;;;;;;;11.24;54.52;97019.97;6226528;28;19989;-62
2022/09/09 04:16:58;;;;;;;1.98;1.63;;;;;;;11.61;53.87;97020.16;6229149;28;22584;-64
2022/09/09 04:20:02;;;;;;;2.83;1.80;;;;;;;12.22;53.12;97015.19;6233037;28;20041;-63
2022/09/09 04:23:10;;;;;;;7.43;3.25;;;;;;;12.69;51.30;97030.34;6234424;28;20057;-63
2022/09/09 04:26:11;;;;;;;;;;;;;;;12.87;51.55;97028.16;6230263;28;20056;-63
2022/09/09 04:29:12;;;;;;;2.92;1.77;;;;;;;12.58;50.99;97015.25;6237425;28;20556;-63
2022/09/09 04:32:14;;;;;;;3.05;1.70;;;;;;;12.46;51.22;97026.69;6236009;28;20160;-63
2022/09/09 04:35:16;;;;;;;1.65;1.40;;;;;;;12.76;50.35;97028.09;6237324;28;20053;-63
2022/09/09 04:38:18;;;;;;;1.88;1.33;;;;;;;12.94;48.96;97034.72;6236385;28;20041;-62
2022/09/09 04:41:20;;;;;;;1.67;1.58;;;;;;;12.78;47.66;97031.47;6237211;28;20045;-63
2022/09/09 04:44:24;;;;;;;2.20;1.63;;;;;;;12.47;48.16;97022.22;6234597;28;20144;-63
2022/09/09 04:47:28;;;;;;;1.67;1.50;;;;;;;12.43;48.86;97018.13;6234233;28;20038;-63
2022/09/09 04:50:33;;;;;;;2.95;1.60;;;;;;;12.65;48.31;97017.44;6237413;28;20041;-63
2022/09/09 04:53:35;;;;;;;4.03;1.50;;;;;;;12.82;47.78;97019.72;6236667;28;20075;-63
2022/09/09 04:56:41;;;;;;;2.78;1.92;;;;;;;12.82;47.59;97017.09;6230518;28;20152;-63
2022/09/09 04:59:44;;;;;;;2.22;1.67;;;;;;;12.66;47.75;97029.72;6232264;28;20147;-63
2022/09/09 05:02:51;;;;;;;2.83;1.52;;;;;;;12.27;48.56;97015.72;6228743;28;20057;-63
2022/09/09 05:06:01;;;;;;;2.35;1.40;;;;;;;12.05;48.86;97014.53;6234999;28;20085;-63
2022/09/09 05:09:03;;;;;;;1.40;1.05;;;;;;;11.94;49.50;97017.06;6229333;28;20183;-63
2022/09/09 05:12:05;;;;;;;4.07;1.70;;;;;;;12.05;49.14;97013.69;6237009;28;20045;-63
2022/09/09 05:15:06;;;;;;;4.00;2.33;;;;;;;12.08;49.20;97003.78;6237611;28;20180;-63
2022/09/09 05:18:10;;;;;;;4.18;2.25;;;;;;;12.21;48.65;97011.69;6233429;28;20091;-63
2022/09/09 05:21:15;;;;;;;2.63;1.60;;;;;;;11.95;49.20;97008.22;6235027;28;20597;-64
2022/09/09 05:24:16;;;;;;;2.55;1.10;;;;;;;11.87;49.75;97016.66;6233172;28;20038;-62
2022/09/09 05:27:21;;;;;;;9.43;4.50;;;;;;;11.96;49.73;97015.16;6236870;28;20041;-62
2022/09/09 05:30:24;;;;;;;16.00;8.75;;;;;;;12.05;49.56;97019.81;6228882;28;20073;-62
2022/09/09 05:33:27;;;;;;;4.35;3.03;;;;;;;12.01;49.09;97013.06;6239426;28;20184;-64
2022/09/09 05:36:33;;;;;;;5.53;2.60;;;;;;;12.06;49.19;97010.13;6233161;28;20033;-65
2022/09/09 05:39:37;;;;;;;4.07;2.35;;;;;;;12.28;48.78;97012.09;6236500;28;20049;-62
2022/09/09 05:42:42;;;;;;;1.92;1.40;;;;;;;12.46;48.18;97002.91;6232726;28;20045;-62
2022/09/09 05:45:43;;;;;;;1.90;1.25;;;;;;;12.68;47.57;97006.66;6237122;28;20136;-64
2022/09/09 05:48:47;;;;;;;1.58;0.73;;;;;;;12.66;47.44;97013.88;6229386;28;20052;-63
2022/09/09 05:51:57;;;;;;;4.18;1.83;;;;;;;12.66;47.33;96998.88;6235951;28;20050;-63
2022/09/09 05:55:04;;;;;;;3.75;1.30;;;;;;;13.09;46.36;97010.78;6232120;28;20037;-63
2022/09/09 05:58:09;;;;;;;2.53;1.30;;;;;;;12.98;46.35;97009.75;6234843;28;20065;-62
2022/09/09 06:01:13;;;;;;;2.45;1.20;;;;;;;12.64;47.09;97005.22;6233639;28;20041;-64
2022/09/09 06:04:17;;;;;;;3.80;1.08;;;;;;;12.49;47.29;97000.06;6234900;28;20041;-63
2022/09/09 06:07:22;;;;;;;1.65;1.20;;;;;;;12.25;47.92;97001.78;6228107;28;20048;-64
2022/09/09 06:10:24;;;;;;;1.30;1.20;;;;;;;12.36;47.49;97005.34;6231441;28;20550;-63
2022/09/09 06:13:29;;;;;;;1.92;1.00;;;;;;;12.57;46.99;97010.94;6240436;28;20526;-63
2022/09/09 06:16:34;;;;;;;3.20;0.95;;;;;;;12.66;46.61;97008.59;6238997;28;20052;-64
2022/09/09 06:19:35;;;;;;;1.35;0.93;;;;;;;12.61;46.38;97008.91;6237900;28;20049;-63
2022/09/09 06:22:41;;;;;;;1.40;1.20;;;;;;;12.49;46.28;96997.44;6230852;28;20422;-63
2022/09/09 06:25:46;;;;;;;1.05;0.95;;;;;;;12.52;46.52;97002.47;6238235;28;20041;-62
2022/09/09 06:28:52;;;;;;;2.15;0.80;;;;;;;12.55;46.42;96999.63;6236289;28;20148;-63
2022/09/09 06:31:57;;;;;;;2.65;1.20;;;;;;;12.65;46.36;96991.88;6230236;28;20054;-64
2022/09/09 06:35:02;;;;;;;2.08;0.90;;;;;;;12.66;46.22;96996.22;6232242;28;20400;-63
2022/09/09 06:38:08;;;;;;;1.33;0.90;;;;;;;12.72;46.41;97000.22;6240461;28;20046;-63
2022/09/09 06:41:14;;;;;;;1.88;0.70;;;;;;;13.01;44.99;96998.13;6232716;28;20049;-63
2022/09/09 06:44:18;;;;;;;0.90;0.85;;;;;;;12.70;45.62;96988.94;6239333;28;20187;-63
2022/09/09 06:47:19;;;;;;;0.88;0.88;;;;;;;12.61;45.89;96984.31;6237072;28;20038;-63
2022/09/09 06:50:28;;;;;;;2.53;1.33;;;;;;;12.47;46.21;96983.47;6240785;28;20063;-63
2022/09/09 06:53:30;;;;;;;1.90;1.42;;;;;;;12.48;45.93;96990.47;6233662;28;20064;-64
2022/09/09 06:56:40;;;;;;;1.35;1.23;;;;;;;12.08;47.06;96987.94;6234268;28;20067;-63
2022/09/09 06:59:42;;;;;;;1.92;0.98;;;;;;;11.96;47.68;96988.81;6231627;28;20056;-63
2022/09/09 07:02:46;;;;;;;3.45;1.45;;;;;;;12.07;47.58;96980.16;6229880;28;20053;-62
2022/09/09 07:05:56;;;;;;;2.58;1.80;;;;;;;12.02;47.99;96993.66;6235284;28;20046;-62
2022/09/09 07:09:04;;;;;;;3.35;2.65;;;;;;;11.99;47.66;96983.31;6234888;28;20041;-63
2022/09/09 07:12:10;;;;;;;4.88;2.97;;;;;;;12.00;47.89;96979.75;6234870;28;20045;-64
2022/09/09 07:15:15;;;;;;;2.70;2.10;;;;;;;12.04;47.77;96978.56;6233393;28;20045;-63
2022/09/09 07:18:22;;;;;;;3.30;1.90;;;;;;;12.26;47.24;96977.09;6238034;28;20041;-63
2022/09/09 07:21:24;;;;;;;;;;;;;;;12.17;47.70;96975.06;6241200;28;20053;-62
2022/09/09 07:24:30;;;;;;;1.60;1.48;;;;;;;12.20;47.10;96974.84;6234328;28;19980;-63
2022/09/09 07:27:34;;;;;;;1.92;1.42;;;;;;;12.19;47.07;96978.47;6239077;28;20037;-63
2022/09/09 07:30:35;;;;;;;;;;;;;;;12.35;46.93;96984.34;6231621;28;20060;-63
2022/09/09 07:33:40;;;;;;;2.60;1.77;;;;;;;12.45;46.24;96972.19;6231326;28;19921;-64
2022/09/09 07:36:42;;;;;;;3.10;2.00;;;;;;;12.62;45.95;96972.78;6232730;28;20148;-63
2022/09/09 07:39:46;;;;;;;2.45;1.52;;;;;;;12.91;45.65;96973.31;6239789;28;20041;-64
2022/09/09 07:42:53;;;;;;;4.15;3.25;;;;;;;13.36;44.50;96976.22;6237494;28;20722;-64
2022/09/09 07:46:01;;;;;;;4.70;2.85;;;;;;;13.58;43.93;96980.75;6237942;28;20464;-64
2022/09/09 07:49:13;;;;;;;2.67;2.42;;;;;;;13.53;43.52;96972.31;6239014;28;20081;-64
2022/09/09 07:52:19;;;;;;;1.40;1.30;;;;;;;13.77;42.72;96967.81;6231707;28;20041;-62
2022/09/09 07:55:25;;;;;;;3.20;1.90;;;;;;;13.79;42.61;96984.41;6235705;28;20049;-63
2022/09/09 07:58:28;;;;;;;1.77;1.30;;;;;;;13.93;41.48;96965.69;6235622;28;20060;-63
2022/09/09 08:01:39;;;;;;;1.42;1.13;;;;;;;14.11;41.10;96968.72;6236544;28;20057;-65
2022/09/09 08:04:43;;;;;;;3.67;1.77;;;;;;;13.83;41.40;96967.34;6236567;28;20041;-62
2022/09/09 08:07:45;;;;;;;1.38;1.10;;;;;;;14.02;41.07;96953.56;6226842;28;20191;-63
2022/09/09 08:10:49;;;;;;;3.22;1.42;;;;;;;13.87;41.61;96960.88;6236067;28;20046;-64
2022/09/09 08:13:51;;;;;;;1.95;1.00;;;;;;;13.84;41.83;96963.75;6234792;28;20081;-63
2022/09/09 08:16:54;;;;;;;2.30;1.38;;;;;;;13.98;41.68;96962.69;6232126;28;20499;-64
2022/09/09 08:19:58;;;;;;;1.48;1.17;;;;;;;14.14;40.88;96957.03;6238402;28;20407;-62
2022/09/09 08:22:59;;;;;;;1.52;1.13;;;;;;;14.36;40.18;96956.22;6233727;28;20133;-62
2022/09/09 08:26:05;;;;;;;2.00;0.90;;;;;;;14.54;39.87;96959.25;6234391;28;20065;-63
2022/09/09 08:29:13;;;;;;;2.83;1.60;;;;;;;14.94;39.22;96956.88;6234560;28;20136;-62
2022/09/09 08:32:16;;;;;;;3.38;2.58;;;;;;;15.39;38.30;96945.28;6236540;28;20056;-64
2022/09/09 08:35:20;;;;;;;4.43;3.40;;;;;;;16.00;37.15;96945.44;6236431;28;20037;-64
2022/09/09 08:38:21;;;;;;;1.48;1.30;;;;;;;16.63;36.05;96947.09;6235449;28;20041;-64
2022/09/09 08:41:38;;;;;;;1.95;1.63;;;;;;;17.52;34.96;96939.94;6235500;28;20045;-63
2022/09/09 08:44:50;;;;;;;3.60;2.20;;;;;;;18.74;32.41;96940.94;6237199;28;20132;-62
2022/09/09 08:48:17;;;;;;;3.60;2.25;;;;;;;19.89;30.28;96931.34;6236089;28;20948;-63
2022/09/09 08:51:20;;;;;;;1.77;1.38;;;;;;;21.33;28.72;96932.31;6236086;28;20069;-63
2022/09/09 08:54:31;;;;;;;6.38;3.15;;;;;;;21.33;26.70;96934.16;6233114;28;20037;-63
2022/09/09 08:57:34;;;;;;;1.65;1.20;;;;;;;20.88;26.90;96919.34;6236740;28;20049;-64
2022/09/09 09:01:01;;;;;;;1.15;0.90;;;;;;;21.13;27.03;96922.94;6228695;28;20053;-62
2022/09/09 09:04:17;;;;;;;1.73;1.30;;;;;;;21.31;26.60;96907.56;6227325;28;20063;-65
2022/09/09 09:08:01;;;;;;;2.30;1.55;;;;;;;21.79;26.66;96903.22;6233991;28;20033;-64
2022/09/09 09:11:08;;;;;;;2.35;1.17;;;;;;;23.42;24.47;96900.94;6233624;28;20056;-64
2022/09/09 09:14:21;;;;;;;1.00;0.60;;;;;;;27.37;19.94;96909.19;6235264;28;20515;-63
2022/09/09 09:17:27;;;;;;;0.75;0.55;;;;;;;29.65;17.76;96890.41;6236693;28;20499;-64
2022/09/09 09:20:53;;;;;;;1.95;0.70;;;;;;;32.44;16.15;96889.59;6234184;28;20427;-62
2022/09/09 09:24:00;;;;;;;0.50;0.50;;;;;;;32.76;14.54;96889.25;6236463;28;20041;-64
2022/09/09 09:27:14;;;;;;;1.05;0.40;;;;;;;32.56;15.27;96885.03;6235563;28;20431;-63
2022/09/09 09:30:24;;;;;;;1.90;0.55;;;;;;;33.26;14.32;96883.19;6237823;28;20130;-63
2022/09/09 09:33:29;;;;;;;1.02;0.60;;;;;;;31.95;14.17;96872.69;6227579;28;20046;-62
2022/09/09 09:36:46;;;;;;;0.70;0.30;;;;;;;31.98;14.81;96862.16;6232509;28;20132;-63
2022/09/09 09:39:55;;;;;;;1.13;0.43;;;;;;;31.31;15.22;96867.78;6230636;28;20064;-62
2022/09/09 09:43:01;;;;;;;0.88;0.65;;;;;;;30.62;15.46;96863.63;6234637;28;20053;-62
2022/09/09 09:46:18;;;;;;;1.33;0.50;;;;;;;27.63;17.47;96851.63;6233394;28;20041;-64
2022/09/09 09:49:19;;;;;;;0.90;0.45;;;;;;;27.55;17.20;96855.41;6240176;28;20076;-63
2022/09/09 09:52:29;;;;;;;0.40;0.40;;;;;;;29.08;15.93;96853.22;6240353;28;20037;-63
2022/09/09 09:55:33;;;;;;;2.25;0.88;;;;;;;29.65;15.56;96852.47;6234692;28;20064;-63
2022/09/09 09:58:46;;;;;;;0.98;0.60;;;;;;;28.64;15.76;96851.31;6237613;28;20538;-63
2022/09/09 10:01:50;;;;;;;1.23;0.63;;;;;;;29.99;15.32;96876.34;6237369;28;20118;-66
2022/09/09 10:05:19;;;;;;;0.40;0.30;;;;;;;30.33;14.75;96844.31;6233804;28;20045;-63
2022/09/09 10:08:25;;;;;;;1.92;0.38;;;;;;;28.39;16.16;96832.22;6228925;28;20041;-63
2022/09/09 10:11:48;;;;;;;1.00;0.60;;;;;;;25.36;18.29;96828.09;6238177;28;20056;-63
2022/09/09 10:15:02;;;;;;;0.65;0.40;;;;;;;26.29;17.57;96834.19;6241518;28;20115;-63
2022/09/09 10:18:21;;;;;;;1.10;0.60;;;;;;;24.85;18.43;96838.94;6231932;28;20054;-62
2022/09/09 10:21:25;;;;;;;1.58;1.20;;;;;;;24.11;19.45;96830.97;6232477;28;20061;-62
2022/09/09 10:24:50;;;;;;;1.30;0.52;;;;;;;26.59;17.44;96805.09;6240435;28;20538;-62
2022/09/09 10:28:18;;;;;;;0.68;0.55;;;;;;;28.71;15.79;96824.22;6218605;28;20056;-62
2022/09/09 10:31:24;;;;;;;1.15;0.70;;;;;;;28.29;15.57;96816.44;6219915;28;20135;-62
2022/09/09 10:34:49;;;;;;;4.88;1.73;;;;;;;27.68;16.11;96814.84;6219594;28;20042;-62
2022/09/09 10:38:14;;;;;;;1.35;0.95;;;;;;;26.65;17.03;96809.69;6219515;28;20042;-63
2022/09/09 10:41:37;;;;;;;0.43;0.43;;;;;;;27.38;15.96;96811.75;6230900;28;20053;-62
2022/09/09 10:44:41;;;;;;;1.48;0.60;;;;;;;28.04;15.96;96802.75;6219716;28;20054;-63
2022/09/09 10:48:37;;;;;;;2.30;0.60;;;;;;;26.42;16.92;96801.88;6237566;28;20033;-64
2022/09/09 10:52:01;;;;;;;1.00;0.70;;;;;;;25.84;17.49;96801.34;6238849;28;20048;-63
2022/09/09 10:55:17;;;;;;;1.85;0.60;;;;;;;26.16;17.51;96799.06;6231377;28;20099;-67
2022/09/09 10:58:42;;;;;;;0.70;0.40;;;;;;;26.66;17.24;96794.31;6239722;28;20391;-67
2022/09/09 11:01:51;;;;;;;1.98;0.50;;;;;;;25.87;18.11;96795.56;6239269;28;20056;-68
2022/09/09 11:05:00;;;;;;;1.05;0.50;;;;;;;24.15;19.80;96787.41;6233176;28;20037;-68
2022/09/09 11:08:11;;;;;;;1.50;0.60;;;;;;;22.15;21.71;96779.56;6237972;28;20075;-68
2022/09/09 11:11:29;;;;;;;1.25;0.63;;;;;;;22.51;21.48;96769.22;6237795;28;20038;-68
2022/09/09 11:14:45;;;;;;;1.33;0.90;;;;;;;24.35;19.82;96784.13;6240080;28;20904;-67
2022/09/09 11:17:52;;;;;;;0.73;0.52;;;;;;;25.90;18.75;96778.16;6233338;28;20041;-67
2022/09/09 11:21:01;;;;;;;0.75;0.60;;;;;;;27.24;17.57;96764.97;6241978;28;20065;-69
2022/09/09 11:24:10;;;;;;;3.22;1.00;;;;;;;26.93;17.31;96768.22;6242770;28;20122;-74
2022/09/09 11:27:16;;;;;;;1.83;1.23;;;;;;;25.89;18.12;96782.72;6231290;28;20038;-74
2022/09/09 11:30:25;;;;;;;3.08;1.27;;;;;;;24.11;20.12;96767.28;6246926;28;20041;-74
2022/09/09 11:34:10;;;;;;;1.23;0.85;;;;;;;22.21;22.08;96757.47;6246882;28;20045;-73
2022/09/09 11:37:25;;;;;;;3.05;0.68;;;;;;;20.38;23.98;96758.78;6229598;28;21006;-73
2022/09/09 11:40:31;;;;;;;1.00;0.90;;;;;;;19.89;24.80;96763.94;6259936;28;20049;-73
2022/09/09 11:43:46;;;;;;;3.42;1.48;;;;;;;21.26;23.71;96744.00;6236927;28;20187;-76
2022/09/09 11:46:53;;;;;;;7.13;2.45;;;;;;;22.74;22.10;96741.56;6241720;28;20435;-74
2022/09/09 11:50:07;;;;;;;5.13;2.95;;;;;;;21.99;22.54;96742.97;6231636;28;20052;-72
2022/09/09 11:53:22;;;;;;;1.45;0.93;;;;;;;20.27;24.43;96737.72;6246250;28;20053;-73
2022/09/09 11:56:43;;;;;;;1.13;0.90;;;;;;;19.28;25.62;96733.75;6238383;28;20064;-74
2022/09/09 11:59:54;;;;;;;2.05;1.40;;;;;;;18.34;26.76;96744.94;6231785;28;20054;-73
2022/09/09 12:03:01;;;;;;;0.80;0.80;;;;;;;17.92;27.93;96729.50;6234658;28;20041;-73
2022/09/09 12:06:20;;;;;;;2.00;0.70;;;;;;;17.69;28.30;96730.84;6227504;28;20060;-75
2022/09/09 12:09:48;;;;;;;0.90;0.77;;;;;;;17.65;28.76;96732.13;6238453;28;20045;-70
2022/09/09 12:12:52;;;;;;;0.65;0.60;;;;;;;17.70;28.61;96727.22;6238618;28;20053;-70
2022/09/09 12:15:57;;;;;;;0.65;0.65;;;;;;;17.55;28.97;96731.31;6241908;28;20119;-71
2022/09/09 12:19:19;;;;;;;1.90;0.60;;;;;;;17.43;28.73;96728.84;6240060;28;20049;-71
2022/09/09 12:22:35;;;;;;;1.92;0.80;;;;;;;17.21;29.31;96714.09;6240404;28;20435;-71
2022/09/09 12:25:42;;;;;;;2.50;1.60;;;;;;;17.17;29.45;96717.19;6239486;28;20049;-68
2022/09/09 12:28:55;;;;;;;1.77;1.02;;;;;;;17.21;29.68;96713.25;6231033;28;20526;-70
2022/09/09 12:32:06;;;;;;;1.43;0.97;;;;;;;17.27;29.34;96712.69;6240438;28;20049;-65
2022/09/09 12:35:20;;;;;;;2.33;0.90;;;;;;;17.34;29.31;96713.75;6236301;28;20139;-64
2022/09/09 12:38:44;;;;;;;2.45;1.00;;;;;;;17.43;29.21;96707.56;6244321;28;20051;-64
2022/09/09 12:41:57;;;;;;;4.78;1.38;;;;;;;17.53;29.39;96709.38;6243669;28;20490;-64
2022/09/09 12:45:03;;;;;;;4.63;1.80;;;;;;;17.06;30.21;96710.22;6243572;28;20085;-64
2022/09/09 12:48:15;;;;;;;1.23;1.13;;;;;;;17.15;30.07;96716.47;6244571;28;20056;-64
2022/09/09 12:51:26;;;;;;;3.63;1.95;;;;;;;16.92;30.53;96706.19;6243910;28;20056;-64
2022/09/09 12:54:30;;;;;;;1.90;1.48;;;;;;;16.59;31.31;96703.00;6243481;28;20412;-65
2022/09/09 12:57:39;;;;;;;5.55;2.50;;;;;;;16.50;31.76;96695.88;6243630;28;20045;-64
2022/09/09 13:00:50;;;;;;;7.28;4.78;;;;;;;16.49;31.97;96699.50;6243623;28;20473;-64
2022/09/09 13:03:55;;;;;;;7.13;4.47;;;;;;;16.46;31.93;96699.78;6244017;28;20084;-64
2022/09/09 13:07:09;;;;;;;3.58;2.72;;;;;;;16.49;31.65;96690.69;6244060;28;20056;-64
2022/09/09 13:10:14;;;;;;;3.58;2.38;;;;;;;16.45;31.73;96700.75;6243305;28;20421;-65
2022/09/09 13:13:20;;;;;;;5.15;2.70;;;;;;;16.44;31.89;96699.06;6243107;28;20049;-63
2022/09/09 13:16:33;;;;;;;5.18;2.50;;;;;;;16.42;31.86;96701.03;6243514;28;20052;-65
2022/09/09 13:19:38;;;;;;;3.80;2.45;;;;;;;16.37;31.90;96705.94;6243448;28;20045;-65
2022/09/09 13:22:40;;;;;;;3.97;2.03;;;;;;;16.28;32.06;96709.44;6242860;28;20056;-63
2022/09/09 13:25:54;;;;;;;3.00;1.95;;;;;;;16.23;32.36;96711.66;6243515;28;20060;-64
2022/09/09 13:29:07;;;;;;;;;;;;;;;16.16;32.34;96716.66;6243567;28;20057;-63
2022/09/09 13:32:17;;;;;;;5.68;3.38;;;;;;;16.02;33.33;96709.97;6218806;28;19964;-63
2022/09/09 13:35:24;;;;;;;8.10;3.80;;;;;;;15.84;34.43;96722.19;6219369;28;20466;-64
2022/09/09 13:38:28;;;;;;;5.85;4.20;;;;;;;15.66;36.16;96729.94;6236021;28;20056;-65
2022/09/09 13:41:36;;;;;;;5.93;2.80;;;;;;;15.40;38.00;96729.53;6243125;28;20184;-64
2022/09/09 13:44:41;;;;;;;5.07;2.55;;;;;;;15.15;39.68;96723.72;6243265;28;20124;-65
2022/09/09 13:47:47;;;;;;;6.03;2.95;;;;;;;15.02;40.28;96731.03;6242639;28;20068;-64
2022/09/09 13:51:05;;;;;;;6.18;2.55;;;;;;;14.84;41.17;96737.91;6242161;28;20042;-66
2022/09/09 13:54:10;;;;;;;6.75;3.40;;;;;;;14.69;41.71;96738.22;6243616;28;20065;-65
2022/09/09 13:57:18;;;;;;;13.77;3.75;;;;;;;14.56;42.23;96745.50;6243135;28;20053;-66
2022/09/09 14:00:24;;;;;;;13.88;5.32;;;;;;;14.36;42.99;96734.69;6243257;28;20033;-64
2022/09/09 14:03:29;;;;;;;16.88;5.43;;;;;;;14.37;43.35;96751.41;6242973;28;20430;-65
2022/09/09 14:06:37;;;;;;;14.93;5.55;;;;;;;14.18;43.41;96724.78;6243431;28;20049;-65
2022/09/09 14:09:49;;;;;;;8.43;3.90;;;;;;;14.25;44.00;96742.69;6243387;28;20045;-65
2022/09/09 14:12:51;;;;;;;11.10;3.72;;;;;;;14.22;44.04;96737.66;6242727;28;20048;-65
2022/09/09 14:15:55;;;;;;;4.68;2.50;;;;;;;14.16;43.90;96738.16;6243098;28;20069;-66
2022/09/09 14:18:59;;;;;;;7.05;2.17;;;;;;;14.10;44.21;96741.28;6243253;28;20045;-65
2022/09/09 14:22:01;;;;;;;5.07;2.17;;;;;;;14.04;44.19;96747.06;6242453;28;20422;-64
2022/09/09 14:25:04;;;;;;;2.42;1.85;;;;;;;14.02;44.47;96752.50;6242771;28;20137;-64
2022/09/09 14:28:10;;;;;;;6.15;2.67;;;;;;;13.96;44.57;96746.88;6243110;28;20041;-64
2022/09/09 14:31:19;;;;;;;4.78;2.47;;;;;;;13.92;45.06;96755.00;6243556;28;20188;-65
2022/09/09 14:34:25;;;;;;;4.22;2.78;;;;;;;13.79;45.14;96735.81;6247809;28;20045;-65
2022/09/09 14:37:32;;;;;;;5.25;2.92;;;;;;;13.78;45.44;96752.63;6239837;28;20414;-67
2022/09/09 14:40:37;;;;;;;5.95;3.70;;;;;;;13.75;45.87;96754.69;6247471;28;20056;-65
2022/09/09 14:43:40;;;;;;;6.05;3.55;;;;;;;13.76;46.06;96759.88;6247383;28;20057;-65
2022/09/09 14:46:45;;;;;;;7.43;3.78;;;;;;;13.69;46.54;96751.56;6247500;28;20053;-68
2022/09/09 14:49:50;;;;;;;5.63;3.80;;;;;;;13.66;46.43;96753.63;6247405;28;20053;-65
2022/09/09 14:52:52;;;;;;;6.18;3.63;;;;;;;13.62;46.68;96749.56;6247369;28;20048;-64
2022/09/09 14:56:07;;;;;;;5.85;3.17;;;;;;;13.54;47.37;96741.38;6245464;28;20049;-64